createdAt,value
2018-09-05T00:00:16.403Z,0.00
2018-09-05T00:02:08.343Z,0.00
2018-09-05T00:03:08.264Z,0.00
2018-09-05T00:05:00.132Z,0.00
2018-09-05T00:06:00.054Z,0.00
2018-09-05T00:07:52.021Z,0.00
2018-09-05T00:08:51.922Z,0.00
2018-09-05T00:10:44.706Z,0.00
2018-09-05T00:11:44.647Z,0.00
2018-09-05T00:13:36.418Z,0.00
2018-09-05T00:14:36.333Z,0.00
2018-09-05T00:16:28.210Z,0.00
2018-09-05T00:17:28.096Z,0.00
2018-09-05T00:19:19.885Z,0.00
2018-09-05T00:20:19.802Z,0.00
2018-09-05T00:22:11.573Z,0.00
2018-09-05T00:23:11.508Z,0.00
2018-09-05T00:25:04.313Z,0.00
2018-09-05T00:26:04.236Z,0.00
2018-09-05T00:27:56.006Z,0.00
2018-09-05T00:28:55.918Z,0.00
2018-09-05T00:30:47.814Z,0.00
2018-09-05T00:31:47.749Z,0.00
2018-09-05T00:33:39.542Z,0.00
2018-09-05T00:34:39.461Z,0.00
2018-09-05T00:36:31.261Z,0.00
2018-09-05T00:37:31.193Z,0.00
2018-09-05T00:39:23.023Z,0.00
2018-09-05T00:40:22.950Z,0.00
2018-09-05T00:42:14.686Z,0.00
2018-09-05T00:43:14.645Z,0.00
2018-09-05T00:45:06.488Z,0.00
2018-09-05T00:46:06.343Z,0.00
2018-09-05T00:47:58.264Z,0.00
2018-09-05T00:48:58.178Z,0.00
2018-09-05T00:50:50.043Z,0.00
2018-09-05T00:51:49.956Z,0.00
2018-09-05T00:53:41.821Z,0.00
2018-09-05T00:54:41.723Z,0.00
2018-09-05T00:56:33.486Z,0.00
2018-09-05T00:57:33.419Z,0.00
2018-09-05T00:59:25.254Z,0.00
2018-09-05T01:00:25.122Z,0.00
2018-09-05T01:02:17.900Z,0.00
2018-09-05T01:03:17.840Z,0.00
2018-09-05T01:05:09.712Z,0.00
2018-09-05T01:06:09.632Z,0.00
2018-09-05T01:08:01.423Z,0.00
2018-09-05T01:09:01.345Z,0.00
2018-09-05T01:10:53.221Z,0.00
2018-09-05T01:11:53.038Z,0.00
2018-09-05T01:13:44.879Z,0.00
2018-09-05T01:14:44.736Z,0.00
2018-09-05T01:16:36.610Z,0.00
2018-09-05T01:17:36.515Z,0.00
2018-09-05T01:19:28.365Z,0.00
2018-09-05T01:20:28.264Z,0.00
2018-09-05T01:22:20.145Z,0.00
2018-09-05T01:23:20.068Z,0.00
2018-09-05T01:25:11.988Z,0.00
2018-09-05T01:26:11.894Z,0.00
2018-09-05T01:28:04.728Z,0.00
2018-09-05T01:29:04.634Z,0.00
2018-09-05T01:30:56.489Z,0.00
2018-09-05T01:31:56.401Z,0.00
2018-09-05T01:33:49.198Z,0.00
2018-09-05T01:34:49.147Z,0.00
2018-09-05T01:36:41.056Z,0.00
2018-09-05T01:37:40.984Z,0.00
2018-09-05T01:39:33.788Z,0.00
2018-09-05T01:40:33.707Z,0.00
2018-09-05T01:42:25.631Z,0.00
2018-09-05T01:43:25.564Z,0.00
2018-09-05T01:45:18.395Z,0.00
2018-09-05T01:46:18.375Z,0.00
2018-09-05T01:48:10.086Z,0.00
2018-09-05T01:49:10.021Z,0.00
2018-09-05T01:51:01.856Z,0.00
2018-09-05T01:52:01.761Z,0.00
2018-09-05T01:53:53.620Z,0.00
2018-09-05T01:54:53.528Z,0.00
2018-09-05T01:56:45.349Z,0.00
2018-09-05T01:57:45.296Z,0.00
2018-09-05T01:59:37.237Z,0.00
2018-09-05T02:00:37.144Z,0.00
2018-09-05T02:02:29.050Z,0.00
2018-09-05T02:03:28.982Z,0.00
2018-09-05T02:05:20.760Z,0.00
2018-09-05T02:06:20.678Z,0.00
2018-09-05T02:08:13.482Z,0.00
2018-09-05T02:09:13.413Z,0.00
2018-09-05T02:11:06.179Z,0.00
2018-09-05T02:12:06.125Z,0.00
2018-09-05T02:13:58.899Z,0.00
2018-09-05T02:14:58.819Z,0.00
2018-09-05T02:16:50.626Z,0.00
2018-09-05T02:17:50.549Z,0.00
2018-09-05T02:19:43.379Z,0.00
2018-09-05T02:20:43.283Z,0.00
2018-09-05T02:22:35.138Z,0.00
2018-09-05T02:23:35.147Z,0.00
2018-09-05T02:25:27.014Z,0.00
2018-09-05T02:26:26.973Z,0.00
2018-09-05T02:28:19.699Z,0.00
2018-09-05T02:29:19.635Z,0.00
2018-09-05T02:31:11.508Z,0.00
2018-09-05T02:32:11.481Z,0.00
2018-09-05T02:34:04.266Z,0.00
2018-09-05T02:35:04.245Z,0.00
2018-09-05T02:36:56.146Z,0.00
2018-09-05T02:37:56.123Z,0.00
2018-09-05T02:39:49.186Z,0.00
2018-09-05T02:40:48.962Z,0.00
2018-09-05T02:42:41.707Z,0.00
2018-09-05T02:43:41.648Z,0.00
2018-09-05T02:45:33.470Z,0.00
2018-09-05T02:46:33.456Z,0.00
2018-09-05T02:48:26.237Z,0.00
2018-09-05T02:49:26.176Z,0.00
2018-09-05T02:51:17.971Z,0.00
2018-09-05T02:52:17.884Z,0.00
2018-09-05T02:54:09.686Z,0.00
2018-09-05T02:55:09.574Z,0.00
2018-09-05T02:57:01.353Z,0.00
2018-09-05T02:58:01.281Z,0.00
2018-09-05T02:59:53.161Z,0.00
2018-09-05T03:00:53.098Z,0.00
2018-09-05T03:02:44.903Z,0.00
2018-09-05T03:03:44.794Z,0.00
2018-09-05T03:05:36.662Z,0.00
2018-09-05T03:06:36.577Z,0.00
2018-09-05T03:08:28.510Z,0.00
2018-09-05T03:09:28.593Z,0.00
2018-09-05T03:11:20.337Z,0.00
2018-09-05T03:12:20.260Z,0.00
2018-09-05T03:14:12.201Z,0.00
2018-09-05T03:15:12.142Z,0.00
2018-09-05T03:17:04.096Z,0.00
2018-09-05T03:18:04.011Z,0.00
2018-09-05T03:19:55.956Z,0.00
2018-09-05T03:20:55.753Z,0.00
2018-09-05T03:22:48.637Z,0.00
2018-09-05T03:23:48.497Z,0.00
2018-09-05T03:25:40.328Z,0.00
2018-09-05T03:26:40.256Z,0.00
2018-09-05T03:28:33.004Z,0.00
2018-09-05T03:29:32.942Z,0.00
2018-09-05T03:31:24.784Z,0.00
2018-09-05T03:32:24.828Z,0.00
2018-09-05T03:34:17.467Z,0.00
2018-09-05T03:35:17.426Z,0.00
2018-09-05T03:37:10.264Z,0.00
2018-09-05T03:38:10.154Z,0.00
2018-09-05T03:40:01.956Z,0.00
2018-09-05T03:41:01.877Z,0.00
2018-09-05T03:42:54.647Z,0.00
2018-09-05T03:43:54.587Z,0.00
2018-09-05T03:45:46.436Z,0.00
2018-09-05T03:46:46.369Z,0.00
2018-09-05T03:48:38.310Z,0.00
2018-09-05T03:49:38.190Z,0.00
2018-09-05T03:51:30.995Z,0.00
2018-09-05T03:52:30.921Z,0.00
2018-09-05T03:54:22.744Z,0.00
2018-09-05T03:55:22.645Z,0.00
2018-09-05T03:57:14.682Z,0.00
2018-09-05T03:58:14.618Z,0.00
2018-09-05T04:00:06.495Z,0.00
2018-09-05T04:01:06.410Z,0.00
2018-09-05T04:02:59.195Z,0.00
2018-09-05T04:03:59.138Z,0.00
2018-09-05T04:05:51.935Z,0.00
2018-09-05T04:06:51.842Z,0.00
2018-09-05T04:08:43.634Z,0.00
2018-09-05T04:09:43.569Z,0.00
2018-09-05T04:11:35.528Z,0.00
2018-09-05T04:12:35.428Z,0.00
2018-09-05T04:14:27.296Z,0.00
2018-09-05T04:15:27.227Z,0.00
2018-09-05T04:17:19.038Z,0.00
2018-09-05T04:18:18.959Z,0.00
2018-09-05T04:20:11.769Z,0.00
2018-09-05T04:21:11.695Z,0.00
2018-09-05T04:23:04.516Z,0.00
2018-09-05T04:24:04.441Z,0.00
2018-09-05T04:25:56.370Z,0.00
2018-09-05T04:26:56.315Z,0.00
2018-09-05T04:28:48.243Z,0.00
2018-09-05T04:29:48.214Z,0.00
2018-09-05T04:31:40.108Z,5.63
2018-09-05T04:32:40.023Z,5.63
2018-09-05T04:34:32.298Z,5.63
2018-09-05T04:35:32.224Z,5.63
2018-09-05T04:37:25.193Z,5.63
2018-09-05T04:38:24.930Z,5.63
2018-09-05T04:40:16.804Z,5.63
2018-09-05T04:41:16.656Z,5.63
2018-09-05T04:43:09.466Z,11.25
2018-09-05T04:44:09.385Z,11.25
2018-09-05T04:46:01.509Z,11.25
2018-09-05T04:47:01.307Z,11.25
2018-09-05T04:48:53.428Z,11.25
2018-09-05T04:49:53.181Z,11.25
2018-09-05T04:51:45.127Z,11.25
2018-09-05T04:52:45.093Z,16.88
2018-09-05T04:54:37.271Z,16.88
2018-09-05T04:55:36.791Z,16.88
2018-09-05T04:57:28.696Z,22.50
2018-09-05T04:58:28.615Z,22.50
2018-09-05T05:00:21.370Z,28.13
2018-09-05T05:01:21.284Z,28.13
2018-09-05T05:03:14.120Z,28.13
2018-09-05T05:04:14.102Z,28.13
2018-09-05T05:06:05.931Z,28.13
2018-09-05T05:07:05.798Z,28.13
2018-09-05T05:08:57.890Z,28.13
2018-09-05T05:09:57.766Z,28.13
2018-09-05T05:11:50.644Z,28.13
2018-09-05T05:12:50.499Z,28.13
2018-09-05T05:14:42.357Z,33.75
2018-09-05T05:15:42.333Z,33.75
2018-09-05T05:17:35.146Z,45.00
2018-09-05T05:18:35.060Z,45.00
2018-09-05T05:20:27.991Z,50.63
2018-09-05T05:21:27.782Z,50.63
2018-09-05T05:23:20.605Z,50.63
2018-09-05T05:24:20.590Z,50.63
2018-09-05T05:26:12.455Z,56.25
2018-09-05T05:27:12.272Z,56.25
2018-09-05T05:29:05.133Z,56.25
2018-09-05T05:30:05.020Z,50.63
2018-09-05T05:31:57.854Z,50.63
2018-09-05T05:32:57.802Z,50.63
2018-09-05T05:34:50.631Z,50.63
2018-09-05T05:35:50.505Z,50.63
2018-09-05T05:37:43.362Z,50.63
2018-09-05T05:38:43.298Z,50.63
2018-09-05T05:40:35.266Z,67.50
2018-09-05T05:41:35.211Z,73.13
2018-09-05T05:43:27.153Z,78.75
2018-09-05T05:44:27.106Z,84.38
2018-09-05T05:46:18.960Z,78.75
2018-09-05T05:47:18.938Z,84.38
2018-09-05T05:49:11.677Z,90.00
2018-09-05T05:50:11.608Z,95.63
2018-09-05T05:52:03.498Z,123.75
2018-09-05T05:53:03.375Z,129.38
2018-09-05T05:54:55.517Z,106.88
2018-09-05T05:55:55.317Z,106.88
2018-09-05T05:57:47.286Z,123.75
2018-09-05T05:58:47.279Z,146.25
2018-09-05T06:00:39.066Z,135.00
2018-09-05T06:01:38.993Z,135.00
2018-09-05T06:03:30.930Z,123.75
2018-09-05T06:04:30.824Z,106.88
2018-09-05T06:06:22.833Z,106.88
2018-09-05T06:07:22.602Z,118.13
2018-09-05T06:09:14.539Z,163.13
2018-09-05T06:10:14.475Z,174.38
2018-09-05T06:12:06.306Z,174.38
2018-09-05T06:13:06.186Z,163.13
2018-09-05T06:14:58.159Z,146.25
2018-09-05T06:15:58.169Z,123.75
2018-09-05T06:17:50.224Z,135.00
2018-09-05T06:18:50.197Z,118.13
2018-09-05T06:20:41.999Z,129.38
2018-09-05T06:21:41.931Z,112.50
2018-09-05T06:23:33.847Z,163.13
2018-09-05T06:24:33.654Z,174.38
2018-09-05T06:26:25.521Z,354.38
2018-09-05T06:27:25.483Z,236.25
2018-09-05T06:29:17.381Z,202.50
2018-09-05T06:30:17.330Z,174.38
2018-09-05T06:32:09.089Z,174.38
2018-09-05T06:33:09.009Z,185.63
2018-09-05T06:35:00.835Z,180.00
2018-09-05T06:36:00.772Z,202.50
2018-09-05T06:37:52.598Z,213.75
2018-09-05T06:38:52.549Z,208.13
2018-09-05T06:40:44.369Z,236.25
2018-09-05T06:41:44.223Z,202.50
2018-09-05T06:43:36.221Z,213.75
2018-09-05T06:44:36.051Z,236.25
2018-09-05T06:46:27.820Z,286.88
2018-09-05T06:47:27.757Z,247.50
2018-09-05T06:49:19.621Z,191.25
2018-09-05T06:50:19.556Z,213.75
2018-09-05T06:52:11.347Z,225.00
2018-09-05T06:53:11.284Z,264.38
2018-09-05T06:55:03.120Z,528.75
2018-09-05T06:56:03.030Z,478.13
2018-09-05T06:57:54.825Z,1310.63
2018-09-05T06:58:54.695Z,590.63
2018-09-05T07:00:46.500Z,928.13
2018-09-05T07:01:46.439Z,1417.50
2018-09-05T07:03:38.280Z,523.13
2018-09-05T07:04:38.206Z,534.38
2018-09-05T07:06:29.984Z,354.38
2018-09-05T07:07:29.906Z,388.13
2018-09-05T07:09:21.791Z,393.75
2018-09-05T07:10:21.662Z,427.50
2018-09-05T07:12:13.444Z,708.75
2018-09-05T07:13:13.359Z,922.50
2018-09-05T07:15:05.157Z,686.25
2018-09-05T07:16:05.096Z,866.25
2018-09-05T07:17:56.883Z,1141.88
2018-09-05T07:18:56.837Z,742.50
2018-09-05T07:20:48.659Z,1023.75
2018-09-05T07:21:48.579Z,1299.38
2018-09-05T07:23:40.330Z,849.38
2018-09-05T07:24:40.235Z,787.50
2018-09-05T07:26:32.026Z,1068.75
2018-09-05T07:27:32.013Z,922.50
2018-09-05T07:29:23.818Z,1260.00
2018-09-05T07:30:23.743Z,1563.75
2018-09-05T07:32:15.554Z,1288.13
2018-09-05T07:33:15.444Z,1726.88
2018-09-05T07:35:07.235Z,1473.75
2018-09-05T07:36:07.210Z,759.38
2018-09-05T07:37:59.015Z,1321.88
2018-09-05T07:38:58.923Z,1350.00
2018-09-05T07:40:50.729Z,1293.75
2018-09-05T07:41:50.701Z,703.13
2018-09-05T07:43:42.542Z,1451.25
2018-09-05T07:44:42.404Z,1170.00
2018-09-05T07:46:34.202Z,1501.88
2018-09-05T07:47:34.142Z,1878.75
2018-09-05T07:49:25.953Z,1023.75
2018-09-05T07:50:25.879Z,838.13
2018-09-05T07:52:17.740Z,579.38
2018-09-05T07:53:17.677Z,540.00
2018-09-05T07:55:09.517Z,630.00
2018-09-05T07:56:09.445Z,697.50
2018-09-05T07:58:01.310Z,765.00
2018-09-05T07:59:01.212Z,843.75
2018-09-05T08:00:53.041Z,720.00
2018-09-05T08:01:52.990Z,720.00
2018-09-05T08:03:44.859Z,601.88
2018-09-05T08:04:44.760Z,551.25
2018-09-05T08:06:36.582Z,540.00
2018-09-05T08:07:36.517Z,551.25
2018-09-05T08:09:28.338Z,500.63
2018-09-05T08:10:28.271Z,523.13
2018-09-05T08:12:20.052Z,590.63
2018-09-05T08:13:19.994Z,573.75
2018-09-05T08:15:11.810Z,669.38
2018-09-05T08:16:11.788Z,748.13
2018-09-05T08:18:03.561Z,793.13
2018-09-05T08:19:03.489Z,1383.75
2018-09-05T08:20:55.317Z,765.00
2018-09-05T08:21:55.276Z,1153.13
2018-09-05T08:23:46.978Z,776.25
2018-09-05T08:24:46.920Z,900.00
2018-09-05T08:26:38.783Z,1001.25
2018-09-05T08:27:38.708Z,961.88
2018-09-05T08:29:30.499Z,1355.63
2018-09-05T08:30:30.435Z,1440.00
2018-09-05T08:32:22.254Z,2660.63
2018-09-05T08:33:22.403Z,1485.00
2018-09-05T08:35:14.037Z,1395.00
2018-09-05T08:36:14.178Z,1569.38
2018-09-05T08:38:05.715Z,2992.50
2018-09-05T08:39:05.599Z,3043.13
2018-09-05T08:40:57.402Z,3116.25
2018-09-05T08:41:57.410Z,3003.75
2018-09-05T08:43:49.265Z,3459.38
2018-09-05T08:44:49.444Z,3628.13
2018-09-05T08:46:40.982Z,3521.25
2018-09-05T08:47:40.896Z,3273.75
2018-09-05T08:49:32.697Z,3251.25
2018-09-05T08:50:32.634Z,3296.25
2018-09-05T08:52:24.435Z,3571.88
2018-09-05T08:53:24.392Z,1175.63
2018-09-05T08:55:16.348Z,1181.25
2018-09-05T08:56:16.325Z,3841.88
2018-09-05T08:58:08.004Z,2317.50
2018-09-05T08:59:07.949Z,1541.25
2018-09-05T09:00:59.916Z,1417.50
2018-09-05T09:01:59.848Z,1350.00
2018-09-05T09:03:51.709Z,1271.25
2018-09-05T09:04:51.720Z,1226.25
2018-09-05T09:06:43.440Z,1254.38
2018-09-05T09:07:43.397Z,1181.25
2018-09-05T09:09:35.190Z,1147.50
2018-09-05T09:10:35.132Z,1170.00
2018-09-05T09:12:26.916Z,759.38
2018-09-05T09:13:26.881Z,461.25
2018-09-05T09:15:18.690Z,450.00
2018-09-05T09:16:18.597Z,2103.75
2018-09-05T09:18:10.369Z,1355.63
2018-09-05T09:19:10.317Z,1220.63
2018-09-05T09:21:02.195Z,658.13
2018-09-05T09:22:02.139Z,641.25
2018-09-05T09:23:53.941Z,3453.75
2018-09-05T09:24:53.879Z,3532.50
2018-09-05T09:26:45.654Z,3920.63
2018-09-05T09:27:45.601Z,3853.13
2018-09-05T09:29:37.474Z,3825.00
2018-09-05T09:30:37.409Z,3768.75
2018-09-05T09:32:29.186Z,2925.00
2018-09-05T09:33:29.140Z,793.13
2018-09-05T09:35:20.943Z,3318.75
2018-09-05T09:36:20.860Z,2908.13
2018-09-05T09:38:12.639Z,4100.63
2018-09-05T09:39:12.591Z,3150.00
2018-09-05T09:41:04.365Z,3915.00
2018-09-05T09:42:04.309Z,1316.25
2018-09-05T09:43:57.130Z,427.50
2018-09-05T09:44:57.070Z,410.63
2018-09-05T09:46:48.858Z,506.25
2018-09-05T09:47:48.799Z,888.75
2018-09-05T09:49:41.601Z,2446.88
2018-09-05T09:50:41.540Z,3645.00
2018-09-05T09:52:34.339Z,303.75
2018-09-05T09:53:34.317Z,298.13
2018-09-05T09:55:27.081Z,326.25
2018-09-05T09:56:27.022Z,354.38
2018-09-05T09:58:19.811Z,433.13
2018-09-05T09:59:19.754Z,433.13
2018-09-05T10:01:11.570Z,1321.88
2018-09-05T10:02:11.525Z,3296.25
2018-09-05T10:04:04.305Z,3031.88
2018-09-05T10:05:04.257Z,2311.88
2018-09-05T10:06:56.197Z,1136.25
2018-09-05T10:07:56.031Z,573.75
2018-09-05T10:09:48.880Z,1018.13
2018-09-05T10:10:48.752Z,928.13
2018-09-05T10:12:41.540Z,545.63
2018-09-05T10:13:41.484Z,579.38
2018-09-05T10:15:33.303Z,596.25
2018-09-05T10:16:33.268Z,613.13
2018-09-05T10:18:25.035Z,1985.63
2018-09-05T10:19:24.982Z,821.25
2018-09-05T10:21:16.797Z,2221.88
2018-09-05T10:22:16.732Z,3391.88
2018-09-05T10:24:08.503Z,2880.00
2018-09-05T10:25:08.449Z,3661.88
2018-09-05T10:27:00.222Z,3285.00
2018-09-05T10:28:00.162Z,478.13
2018-09-05T10:29:51.959Z,433.13
2018-09-05T10:30:51.901Z,433.13
2018-09-05T10:32:43.674Z,421.88
2018-09-05T10:33:43.639Z,427.50
2018-09-05T10:35:35.403Z,478.13
2018-09-05T10:36:35.328Z,540.00
2018-09-05T10:38:28.129Z,748.13
2018-09-05T10:39:28.072Z,736.88
2018-09-05T10:41:20.890Z,731.25
2018-09-05T10:42:20.814Z,708.75
2018-09-05T10:44:13.652Z,691.88
2018-09-05T10:45:13.563Z,596.25
2018-09-05T10:47:06.360Z,556.88
2018-09-05T10:48:06.294Z,686.25
2018-09-05T10:49:59.105Z,466.88
2018-09-05T10:50:59.023Z,506.25
2018-09-05T10:52:51.794Z,545.63
2018-09-05T10:53:51.740Z,573.75
2018-09-05T10:55:44.540Z,680.63
2018-09-05T10:56:44.466Z,1378.13
2018-09-05T10:58:37.249Z,2655.00
2018-09-05T10:59:37.193Z,2418.75
2018-09-05T11:01:29.985Z,1704.38
2018-09-05T11:02:29.917Z,466.88
2018-09-05T11:04:22.738Z,455.63
2018-09-05T11:05:22.641Z,489.38
2018-09-05T11:07:15.432Z,2812.50
2018-09-05T11:08:15.364Z,2576.25
2018-09-05T11:10:08.159Z,1766.25
2018-09-05T11:11:08.095Z,978.75
2018-09-05T11:13:00.870Z,466.88
2018-09-05T11:14:00.848Z,455.63
2018-09-05T11:15:53.615Z,523.13
2018-09-05T11:16:53.558Z,478.13
2018-09-05T11:18:46.329Z,511.88
2018-09-05T11:19:46.274Z,489.38
2018-09-05T11:21:39.062Z,472.50
2018-09-05T11:22:38.996Z,540.00
2018-09-05T11:24:33.499Z,517.50
2018-09-05T11:25:33.448Z,410.63
2018-09-05T11:27:26.226Z,388.13
2018-09-05T11:28:26.161Z,388.13
2018-09-05T11:30:18.947Z,388.13
2018-09-05T11:31:18.868Z,410.63
2018-09-05T11:33:11.689Z,478.13
2018-09-05T11:34:11.637Z,466.88
2018-09-05T11:36:04.413Z,382.50
2018-09-05T11:37:04.490Z,326.25
2018-09-05T11:38:57.107Z,303.75
2018-09-05T11:39:57.049Z,292.50
2018-09-05T11:41:49.847Z,320.63
2018-09-05T11:42:49.784Z,337.50
2018-09-05T11:44:42.566Z,348.75
2018-09-05T11:45:42.494Z,343.13
2018-09-05T11:47:35.279Z,360.00
2018-09-05T11:48:35.212Z,376.88
2018-09-05T11:50:28.025Z,421.88
2018-09-05T11:51:27.931Z,427.50
2018-09-05T11:53:20.703Z,393.75
2018-09-05T11:54:20.651Z,388.13
2018-09-05T11:56:13.473Z,421.88
2018-09-05T11:57:13.433Z,405.00
2018-09-05T11:59:06.178Z,365.63
2018-09-05T12:00:06.118Z,337.50
2018-09-05T12:01:58.908Z,292.50
2018-09-05T12:02:58.844Z,298.13
2018-09-05T12:04:51.708Z,298.13
2018-09-05T12:05:51.600Z,281.25
2018-09-05T12:07:44.391Z,264.38
2018-09-05T12:08:44.328Z,258.75
2018-09-05T12:10:37.116Z,258.75
2018-09-05T12:11:37.051Z,264.38
2018-09-05T12:13:29.845Z,275.63
2018-09-05T12:14:29.763Z,275.63
2018-09-05T12:16:22.549Z,281.25
2018-09-05T12:17:22.486Z,275.63
2018-09-05T12:19:15.262Z,275.63
2018-09-05T12:20:15.200Z,275.63
2018-09-05T12:22:07.980Z,286.88
2018-09-05T12:23:07.913Z,292.50
2018-09-05T12:25:00.686Z,303.75
2018-09-05T12:26:00.630Z,298.13
2018-09-05T12:27:53.417Z,275.63
2018-09-05T12:28:53.353Z,264.38
2018-09-05T12:30:46.150Z,236.25
2018-09-05T12:31:46.063Z,230.63
2018-09-05T12:33:38.853Z,225.00
2018-09-05T12:34:38.778Z,225.00
2018-09-05T12:36:31.552Z,230.63
2018-09-05T12:37:31.486Z,230.63
2018-09-05T12:39:24.256Z,275.63
2018-09-05T12:40:24.198Z,275.63
2018-09-05T12:42:16.989Z,286.88
2018-09-05T12:43:16.906Z,292.50
2018-09-05T12:45:09.735Z,264.38
2018-09-05T12:46:09.666Z,236.25
2018-09-05T12:48:02.476Z,230.63
2018-09-05T12:49:02.444Z,236.25
2018-09-05T12:50:55.177Z,247.50
2018-09-05T12:51:55.121Z,258.75
2018-09-05T12:53:47.917Z,258.75
2018-09-05T12:54:47.845Z,258.75
2018-09-05T12:56:40.637Z,264.38
2018-09-05T12:57:40.562Z,270.00
2018-09-05T12:59:33.339Z,275.63
2018-09-05T13:00:33.278Z,281.25
2018-09-05T13:02:26.060Z,275.63
2018-09-05T13:03:25.985Z,275.63
2018-09-05T13:05:18.781Z,270.00
2018-09-05T13:06:18.701Z,270.00
2018-09-05T13:08:11.475Z,286.88
2018-09-05T13:09:11.408Z,292.50
2018-09-05T13:11:04.184Z,286.88
2018-09-05T13:12:04.153Z,286.88
2018-09-05T13:13:56.913Z,275.63
2018-09-05T13:14:56.838Z,270.00
2018-09-05T13:16:49.616Z,264.38
2018-09-05T13:17:49.550Z,258.75
2018-09-05T13:19:42.366Z,247.50
2018-09-05T13:20:42.298Z,253.13
2018-09-05T13:22:35.103Z,286.88
2018-09-05T13:23:35.014Z,286.88
2018-09-05T13:25:27.846Z,236.25
2018-09-05T13:26:27.755Z,230.63
2018-09-05T13:28:20.552Z,264.38
2018-09-05T13:29:20.477Z,264.38
2018-09-05T13:31:13.253Z,253.13
2018-09-05T13:32:13.199Z,258.75
2018-09-05T13:34:05.992Z,275.63
2018-09-05T13:35:05.928Z,270.00
2018-09-05T13:36:58.727Z,264.38
2018-09-05T13:37:58.651Z,253.13
2018-09-05T13:39:51.422Z,292.50
2018-09-05T13:40:51.362Z,292.50
2018-09-05T13:42:44.171Z,253.13
2018-09-05T13:43:44.097Z,275.63
2018-09-05T13:45:36.873Z,236.25
2018-09-05T13:46:36.813Z,236.25
2018-09-05T13:48:29.608Z,236.25
2018-09-05T13:49:29.542Z,219.38
2018-09-05T13:51:22.299Z,225.00
2018-09-05T13:52:22.246Z,225.00
2018-09-05T13:54:15.046Z,219.38
2018-09-05T13:55:14.952Z,196.88
2018-09-05T13:57:07.733Z,174.38
2018-09-05T13:58:07.663Z,202.50
2018-09-05T14:00:00.437Z,151.88
2018-09-05T14:01:00.374Z,185.63
2018-09-05T14:02:53.310Z,196.88
2018-09-05T14:03:53.129Z,168.75
2018-09-05T14:05:45.911Z,202.50
2018-09-05T14:06:45.848Z,208.13
2018-09-05T14:08:38.625Z,208.13
2018-09-05T14:09:38.553Z,208.13
2018-09-05T14:11:31.333Z,202.50
2018-09-05T14:12:31.272Z,202.50
2018-09-05T14:14:24.067Z,202.50
2018-09-05T14:15:24.001Z,196.88
2018-09-05T14:17:16.774Z,174.38
2018-09-05T14:18:16.721Z,168.75
2018-09-05T14:20:09.483Z,208.13
2018-09-05T14:21:09.421Z,208.13
2018-09-05T14:23:02.228Z,213.75
2018-09-05T14:24:02.148Z,219.38
2018-09-05T14:25:54.911Z,219.38
2018-09-05T14:26:54.864Z,225.00
2018-09-05T14:28:47.641Z,225.00
2018-09-05T14:29:47.568Z,225.00
2018-09-05T14:31:40.345Z,236.25
2018-09-05T14:32:40.286Z,241.88
2018-09-05T14:34:33.064Z,236.25
2018-09-05T14:35:32.996Z,241.88
2018-09-05T14:37:25.815Z,258.75
2018-09-05T14:38:25.738Z,258.75
2018-09-05T14:40:18.506Z,219.38
2018-09-05T14:41:18.446Z,208.13
2018-09-05T14:43:11.222Z,191.25
2018-09-05T14:44:11.158Z,191.25
2018-09-05T14:46:03.948Z,191.25
2018-09-05T14:47:03.892Z,191.25
2018-09-05T14:48:56.683Z,185.63
2018-09-05T14:49:56.621Z,180.00
2018-09-05T14:51:49.381Z,180.00
2018-09-05T14:52:49.355Z,180.00
2018-09-05T14:54:42.100Z,168.75
2018-09-05T14:55:42.036Z,163.13
2018-09-05T14:57:34.816Z,163.13
2018-09-05T14:58:34.743Z,163.13
2018-09-05T15:00:27.554Z,157.50
2018-09-05T15:01:27.508Z,151.88
2018-09-05T15:03:20.281Z,140.63
2018-09-05T15:04:20.214Z,140.63
2018-09-05T15:06:12.992Z,135.00
2018-09-05T15:07:12.940Z,129.38
2018-09-05T15:09:05.710Z,118.13
2018-09-05T15:10:05.650Z,129.38
2018-09-05T15:11:58.513Z,157.50
2018-09-05T15:12:58.379Z,151.88
2018-09-05T15:14:51.167Z,106.88
2018-09-05T15:15:51.098Z,112.50
2018-09-05T15:17:43.980Z,118.13
2018-09-05T15:18:43.814Z,101.25
2018-09-05T15:20:36.596Z,123.75
2018-09-05T15:21:36.539Z,146.25
2018-09-05T15:23:29.322Z,118.13
2018-09-05T15:24:29.250Z,95.63
2018-09-05T15:26:22.062Z,84.38
2018-09-05T15:27:21.999Z,84.38
2018-09-05T15:29:14.785Z,78.75
2018-09-05T15:30:14.724Z,78.75
2018-09-05T15:32:07.538Z,78.75
2018-09-05T15:33:07.430Z,78.75
2018-09-05T15:35:00.212Z,78.75
2018-09-05T15:36:00.144Z,78.75
2018-09-05T15:37:52.965Z,84.38
2018-09-05T15:38:52.869Z,78.75
2018-09-05T15:40:45.718Z,78.75
2018-09-05T15:41:45.582Z,78.75
2018-09-05T15:43:38.464Z,78.75
2018-09-05T15:44:38.402Z,78.75
2018-09-05T15:46:31.184Z,78.75
2018-09-05T15:47:31.119Z,78.75
2018-09-05T15:49:23.906Z,78.75
2018-09-05T15:50:23.839Z,90.00
2018-09-05T15:52:16.620Z,106.88
2018-09-05T15:53:16.562Z,112.50
2018-09-05T15:55:09.351Z,112.50
2018-09-05T15:56:09.282Z,112.50
2018-09-05T15:58:02.046Z,106.88
2018-09-05T15:59:02.000Z,106.88
2018-09-05T16:00:54.770Z,106.88
2018-09-05T16:01:54.691Z,106.88
2018-09-05T16:03:47.482Z,106.88
2018-09-05T16:04:47.410Z,101.25
2018-09-05T16:06:40.180Z,101.25
2018-09-05T16:07:40.123Z,101.25
2018-09-05T16:09:32.892Z,95.63
2018-09-05T16:10:32.826Z,95.63
2018-09-05T16:12:25.589Z,95.63
2018-09-05T16:13:25.570Z,95.63
2018-09-05T16:15:18.393Z,90.00
2018-09-05T16:16:18.231Z,90.00
2018-09-05T16:18:11.000Z,84.38
2018-09-05T16:19:10.936Z,84.38
2018-09-05T16:21:03.758Z,84.38
2018-09-05T16:22:03.684Z,84.38
2018-09-05T16:23:56.460Z,84.38
2018-09-05T16:24:56.391Z,84.38
2018-09-05T16:26:49.153Z,84.38
2018-09-05T16:27:49.092Z,78.75
2018-09-05T16:29:41.919Z,78.75
2018-09-05T16:30:41.805Z,78.75
2018-09-05T16:32:34.583Z,73.13
2018-09-05T16:33:34.514Z,73.13
2018-09-05T16:35:27.369Z,73.13
2018-09-05T16:36:27.235Z,73.13
2018-09-05T16:38:20.000Z,73.13
2018-09-05T16:39:19.940Z,67.50
2018-09-05T16:41:12.721Z,67.50
2018-09-05T16:42:12.665Z,67.50
2018-09-05T16:44:05.443Z,61.88
2018-09-05T16:45:05.378Z,61.88
2018-09-05T16:46:58.137Z,61.88
2018-09-05T16:47:58.082Z,61.88
2018-09-05T16:49:50.873Z,56.25
2018-09-05T16:50:50.803Z,56.25
2018-09-05T16:52:43.615Z,56.25
2018-09-05T16:53:43.510Z,50.63
2018-09-05T16:55:36.330Z,50.63
2018-09-05T16:56:36.212Z,50.63
2018-09-05T16:58:28.978Z,45.00
2018-09-05T16:59:28.919Z,45.00
2018-09-05T17:01:21.733Z,45.00
2018-09-05T17:02:21.646Z,45.00
2018-09-05T17:04:14.507Z,39.38
2018-09-05T17:05:14.441Z,39.38
2018-09-05T17:07:07.209Z,39.38
2018-09-05T17:08:07.157Z,39.38
2018-09-05T17:09:59.931Z,33.75
2018-09-05T17:10:59.867Z,33.75
2018-09-05T17:12:52.623Z,33.75
2018-09-05T17:13:52.575Z,28.13
2018-09-05T17:15:45.364Z,28.13
2018-09-05T17:16:45.297Z,28.13
2018-09-05T17:18:38.069Z,28.13
2018-09-05T17:19:38.006Z,22.50
2018-09-05T17:21:30.781Z,22.50
2018-09-05T17:22:30.724Z,22.50
2018-09-05T17:24:23.483Z,16.88
2018-09-05T17:25:23.415Z,16.88
2018-09-05T17:27:16.189Z,16.88
2018-09-05T17:28:16.139Z,16.88
2018-09-05T17:30:08.921Z,16.88
2018-09-05T17:31:08.845Z,11.25
2018-09-05T17:33:01.614Z,11.25
2018-09-05T17:34:01.555Z,11.25
2018-09-05T17:35:54.337Z,11.25
2018-09-05T17:36:54.275Z,11.25
2018-09-05T17:38:47.024Z,5.63
2018-09-05T17:39:46.970Z,5.63
2018-09-05T17:41:39.754Z,5.63
2018-09-05T17:42:39.676Z,5.63
2018-09-05T17:44:32.454Z,5.63
2018-09-05T17:45:32.374Z,5.63
2018-09-05T17:47:25.162Z,0.00
2018-09-05T17:48:25.098Z,0.00
2018-09-05T17:50:17.879Z,0.00
2018-09-05T17:51:17.817Z,0.00
2018-09-05T17:53:10.634Z,0.00
2018-09-05T17:54:10.573Z,0.00
2018-09-05T17:56:03.376Z,0.00
2018-09-05T17:57:03.299Z,0.00
2018-09-05T17:58:56.064Z,0.00
2018-09-05T17:59:56.002Z,0.00
2018-09-05T18:01:48.771Z,0.00
2018-09-05T18:02:48.701Z,0.00
2018-09-05T18:04:41.477Z,0.00
2018-09-05T18:05:41.405Z,0.00
2018-09-05T18:07:33.390Z,0.00
2018-09-05T18:08:33.307Z,0.00
2018-09-05T18:10:25.141Z,0.00
2018-09-05T18:11:25.071Z,0.00
2018-09-05T18:13:16.934Z,0.00
2018-09-05T18:14:16.872Z,0.00
2018-09-05T18:16:08.660Z,0.00